フナフティ島 の空港の天気 - METARとTAF

フナフティ国際空港 ( NGFU / FUN ) - ツバル フナフティ島
飛行場実況気象(Metar)
観測時間07/19 00:00 TVT (07/18 12:00 UTC)
風向・風速不定 1m/s
視程10km以上
天気現象
少しの雲 雲底高度 580m
全天の4割程度の雲 雲底高度 3350m
全天の8割程度の雲 雲底高度 9140m
気温28℃
湿度84%
気圧1011hPa
METARNGFU 181200Z VRB01KT 9999 FEW019TCU SCT110 BKN300 28/25 Q1011
過去の天気等 Google飛行場航空写真 Wunderground天気予報

過去48時間のMETAR

飛行場予報(TAF)
発表時間: 7/18 23:26 TVT (7/18 11:26 UTC)
予報対象時間: 19日0時 TVT ~ 20日0時 TVT
風向・風速北北東 4m/s
視程10km以上
全天の4割程度の雲 雲底高度 550m
全天の4割程度の雲 雲底高度 3050m
19日0時 TVT ~ 19日6時 TVT に 確率 40% で一時的に
視程5000m
天気現象雷雨
少しの積乱雲 雲底高度 550m
TAF NGFU 181126Z 1812/1912 03008KT 9999 SCT018 SCT100
PROB40 TEMPO 1812/1818 5000 TSRA FEW018CB